Time;durP1;ratioP1;P1;durP2;ratioP2;P2;SDS_P1;SDS_P2;PMS_P1;PMS_P2;Temp;Humidity;BMP_temperature;BMP_pressure;BME280_temperature;BME280_humidity;BME280_pressure;Samples;Min_cycle;Max_cycle;Signal;HPM_P1;HPM_P2
2023/08/06 00:01:50;;;;;;;7.53;5.17;;;;;;;16.56;80.74;100239.84;5030042;28;20616;-71
2023/08/06 00:04:17;;;;;;;5.90;5.30;;;;;;;16.55;81.24;100240.97;5037179;28;20214;-71
2023/08/06 00:06:43;;;;;;;9.37;5.50;;;;;;;16.54;80.83;100226.88;5036274;28;20218;-70
2023/08/06 00:09:09;;;;;;;6.03;5.43;;;;;;;16.54;81.27;100228.78;5030333;28;20723;-70
2023/08/06 00:11:37;;;;;;;8.40;5.57;;;;;;;16.53;81.15;100237.91;5034815;28;20211;-71
2023/08/06 00:14:03;;;;;;;7.23;5.53;;;;;;;16.55;81.52;100248.97;5035012;28;20211;-71
2023/08/06 00:16:30;;;;;;;5.47;4.97;;;;;;;16.54;81.44;100234.88;5032645;28;20206;-71
2023/08/06 00:18:56;;;;;;;6.73;5.17;;;;;;;16.54;81.31;100231.44;5035537;28;20624;-71
2023/08/06 00:21:23;;;;;;;8.17;6.27;;;;;;;16.52;81.22;100239.81;5038302;28;20663;-71
2023/08/06 00:23:49;;;;;;;6.23;5.10;;;;;;;16.53;81.33;100240.56;5039019;28;20214;-71
2023/08/06 00:26:15;;;;;;;6.27;5.67;;;;;;;16.52;81.44;100244.38;5032600;28;20229;-71
2023/08/06 00:28:43;;;;;;;8.13;6.07;;;;;;;16.51;81.27;100238.28;5019064;28;20214;-71
2023/08/06 00:31:09;;;;;;;7.53;5.50;;;;;;;16.52;81.49;100233.72;5022627;28;20203;-71
2023/08/06 00:33:35;;;;;;;5.67;5.03;;;;;;;16.51;81.37;100224.19;5020362;28;20212;-71
2023/08/06 00:36:02;;;;;;;7.27;5.13;;;;;;;16.51;81.20;100218.88;5037051;28;20595;-71
2023/08/06 00:38:29;;;;;;;5.60;4.63;;;;;;;16.50;81.26;100225.34;5037699;28;20199;-71
2023/08/06 00:40:56;;;;;;;5.80;5.10;;;;;;;16.48;81.58;100225.72;5034930;28;20220;-71
2023/08/06 00:43:22;;;;;;;6.43;4.47;;;;;;;16.48;81.24;100222.25;5018862;28;20207;-71
2023/08/06 00:45:50;;;;;;;6.57;5.40;;;;;;;16.48;81.26;100223.03;5021742;28;20226;-70
2023/08/06 00:48:17;;;;;;;6.07;4.13;;;;;;;16.47;81.44;100224.19;5038185;28;20226;-70
2023/08/06 00:50:43;;;;;;;4.90;4.13;;;;;;;16.45;81.30;100221.09;5039004;28;20235;-71
2023/08/06 00:53:10;;;;;;;5.03;4.27;;;;;;;16.44;81.35;100216.91;5021393;28;20210;-71
2023/08/06 00:55:37;;;;;;;5.73;4.30;;;;;;;16.43;81.22;100207.41;5041006;28;21614;-71
2023/08/06 00:58:03;;;;;;;4.47;4.07;;;;;;;16.42;80.91;100205.88;5040114;28;21410;-71
2023/08/06 01:00:30;;;;;;;5.37;4.50;;;;;;;16.41;81.13;100193.66;5019956;28;20222;-72
2023/08/06 01:02:58;;;;;;;7.30;4.60;;;;;;;16.41;81.29;100196.34;5037003;28;20257;-71
2023/08/06 01:05:24;;;;;;;5.53;4.40;;;;;;;16.40;81.64;100192.16;5039708;28;20582;-70
2023/08/06 01:08:04;;;;;;;5.37;4.37;;;;;;;16.40;81.59;100200.13;5040555;28;20588;-70
2023/08/06 01:10:41;;;;;;;4.57;4.10;;;;;;;16.39;81.62;100187.97;5021280;28;20326;-71
2023/08/06 01:13:17;;;;;;;7.00;4.70;;;;;;;16.41;81.45;100184.94;5038361;28;20569;-71
2023/08/06 01:15:47;;;;;;;5.57;4.33;;;;;;;16.39;81.47;100187.97;5035021;28;20206;-71
2023/08/06 01:18:16;;;;;;;5.07;4.23;;;;;;;16.39;81.47;100179.97;5020605;28;20202;-71
2023/08/06 01:20:43;;;;;;;5.40;4.37;;;;;;;16.38;81.66;100186.41;5019148;28;20211;-71
2023/08/06 01:23:10;;;;;;;5.57;4.50;;;;;;;16.38;81.85;100183.75;5021101;28;20221;-70
2023/08/06 01:25:43;;;;;;;5.30;4.70;;;;;;;16.38;81.80;100180.31;5037995;28;21178;-70
2023/08/06 01:28:18;;;;;;;5.00;4.50;;;;;;;16.38;81.48;100173.09;5033789;28;20212;-70
2023/08/06 01:30:47;;;;;;;4.33;3.93;;;;;;;16.38;81.99;100172.31;5034351;28;20229;-70
2023/08/06 01:33:20;;;;;;;5.93;4.67;;;;;;;16.38;82.03;100169.66;5037567;28;20213;-70
2023/08/06 01:35:50;;;;;;;5.47;4.60;;;;;;;16.37;82.07;100165.47;5017581;28;20221;-70
2023/08/06 01:38:16;;;;;;;6.47;4.43;;;;;;;16.38;81.87;100161.66;5039598;28;20212;-71
2023/08/06 01:40:43;;;;;;;5.83;4.37;;;;;;;16.37;82.22;100155.56;5018861;28;20231;-71
2023/08/06 01:43:10;;;;;;;4.77;3.90;;;;;;;16.36;82.20;100156.69;5037438;28;20218;-71
2023/08/06 01:45:36;;;;;;;5.93;4.60;;;;;;;16.36;82.23;100156.69;5039111;28;20229;-70
2023/08/06 01:48:03;;;;;;;6.73;4.60;;;;;;;16.35;82.46;100141.09;5016549;28;20687;-70
2023/08/06 01:50:29;;;;;;;5.67;5.07;;;;;;;16.35;82.60;100149.84;5037477;28;20226;-71
2023/08/06 01:52:57;;;;;;;4.97;4.47;;;;;;;16.36;82.40;100147.94;5026177;28;20222;-71
2023/08/06 01:55:23;;;;;;;5.87;4.93;;;;;;;16.35;82.25;100147.16;5038995;28;20209;-70
2023/08/06 01:57:50;;;;;;;6.57;4.60;;;;;;;16.34;82.31;100142.22;5037791;28;20213;-71
2023/08/06 02:00:16;;;;;;;6.90;5.20;;;;;;;16.35;82.53;100141.09;5035921;28;20253;-71
2023/08/06 02:02:42;;;;;;;5.40;4.90;;;;;;;16.34;82.33;100134.22;5034999;28;20203;-70
2023/08/06 02:05:10;;;;;;;4.80;4.27;;;;;;;16.33;82.00;100132.69;5037002;28;20309;-71
2023/08/06 02:07:36;;;;;;;5.37;4.80;;;;;;;16.32;82.17;100123.94;5032330;28;20211;-71
2023/08/06 02:10:05;;;;;;;4.77;4.37;;;;;;;16.32;82.08;100123.19;5037379;28;20322;-71
2023/08/06 02:12:31;;;;;;;6.23;4.67;;;;;;;16.30;81.80;100115.56;5019566;28;20214;-70
2023/08/06 02:14:58;;;;;;;6.47;4.93;;;;;;;16.29;81.91;100121.25;5036763;28;20214;-70
2023/08/06 02:17:24;;;;;;;5.93;5.10;;;;;;;16.27;82.97;100120.88;5020629;28;20237;-71
2023/08/06 02:19:50;;;;;;;5.67;4.40;;;;;;;16.28;82.75;100115.16;5040865;28;20712;-71
2023/08/06 02:22:17;;;;;;;6.20;4.37;;;;;;;16.29;82.66;100111.38;5018491;28;20210;-71
2023/08/06 02:24:43;;;;;;;5.20;4.40;;;;;;;16.30;82.50;100112.13;5019249;28;20221;-71
2023/08/06 02:27:11;;;;;;;6.07;4.60;;;;;;;16.28;82.10;100115.16;5035198;28;20264;-70
2023/08/06 02:29:38;;;;;;;5.63;5.10;;;;;;;16.27;82.53;100110.22;5038824;28;20233;-70
2023/08/06 02:32:05;;;;;;;5.13;4.60;;;;;;;16.28;82.27;100115.16;5019726;28;20213;-71
2023/08/06 02:34:33;;;;;;;5.03;4.33;;;;;;;16.26;82.66;100114.75;5037534;28;20197;-70
2023/08/06 02:36:59;;;;;;;4.77;4.27;;;;;;;16.27;82.54;100111.00;5016755;28;20213;-70
2023/08/06 02:39:26;;;;;;;6.00;4.80;;;;;;;16.27;82.28;100104.88;5036325;28;20238;-70
2023/08/06 02:41:52;;;;;;;6.17;4.40;;;;;;;16.27;82.17;100099.56;5022419;28;20815;-70
2023/08/06 02:44:20;;;;;;;5.70;4.77;;;;;;;16.25;82.16;100085.84;5035490;28;20213;-70
2023/08/06 02:46:46;;;;;;;5.67;4.43;;;;;;;16.24;82.23;100087.75;5015742;28;20234;-70
2023/08/06 02:49:13;;;;;;;5.23;4.23;;;;;;;16.24;82.38;100081.66;5015903;28;20234;-70
2023/08/06 02:51:39;;;;;;;5.00;4.50;;;;;;;16.23;82.73;100080.91;5036330;28;20205;-70
2023/08/06 02:54:05;;;;;;;5.73;4.33;;;;;;;16.23;82.41;100088.13;5037024;28;20311;-70
2023/08/06 02:56:34;;;;;;;5.00;4.23;;;;;;;16.22;82.97;100087.38;5018484;28;20680;-71
2023/08/06 02:59:09;;;;;;;6.40;4.13;;;;;;;16.23;83.05;100077.47;5034868;28;20229;-70
2023/08/06 03:01:47;;;;;;;5.83;4.17;;;;;;;16.23;82.72;100077.47;5020499;28;20695;-70
2023/08/06 03:04:20;;;;;;;5.17;4.30;;;;;;;16.21;83.13;100077.84;5019102;28;20207;-70
2023/08/06 03:06:50;;;;;;;5.73;4.20;;;;;;;16.22;83.12;100078.59;5036845;28;20253;-70
2023/08/06 03:09:17;;;;;;;6.07;4.47;;;;;;;16.21;83.32;100071.75;5019575;28;20233;-70
2023/08/06 03:11:44;;;;;;;6.63;5.37;;;;;;;16.22;83.30;100070.59;5018327;28;20222;-70
2023/08/06 03:14:14;;;;;;;5.90;5.30;;;;;;;16.21;83.60;100063.75;5017667;28;20652;-71
2023/08/06 03:16:41;;;;;;;6.10;5.50;;;;;;;16.19;83.59;100072.13;5017751;28;20207;-70
2023/08/06 03:19:09;;;;;;;6.97;5.90;;;;;;;16.21;83.21;100069.88;5016628;28;20234;-70
2023/08/06 03:21:36;;;;;;;6.10;5.27;;;;;;;16.21;83.40;100072.53;5039370;28;20265;-71
2023/08/06 03:24:03;;;;;;;8.00;5.97;;;;;;;16.21;83.86;100063.75;5034892;28;20224;-70
2023/08/06 03:26:32;;;;;;;7.20;5.73;;;;;;;16.22;83.64;100058.06;5031969;28;20233;-70
2023/08/06 03:28:59;;;;;;;7.07;6.20;;;;;;;16.22;83.64;100049.28;5019550;28;20234;-70
2023/08/06 03:31:26;;;;;;;7.77;5.90;;;;;;;16.22;83.40;100046.63;5032106;28;20199;-70
2023/08/06 03:33:52;;;;;;;7.83;5.53;;;;;;;16.21;83.19;100053.09;5018672;28;20211;-71
2023/08/06 03:36:26;;;;;;;6.27;5.50;;;;;;;16.20;83.39;100039.00;5034916;28;20203;-70
2023/08/06 03:38:53;;;;;;;6.43;5.83;;;;;;;16.19;83.15;100042.06;5036326;28;20683;-71
2023/08/06 03:41:19;;;;;;;6.33;5.50;;;;;;;16.19;83.21;100050.06;5035152;28;20273;-71
2023/08/06 03:43:46;;;;;;;6.63;5.73;;;;;;;16.18;83.35;100043.97;5015521;28;20238;-71
2023/08/06 03:46:19;;;;;;;6.67;5.60;;;;;;;16.18;83.62;100043.19;5036749;28;20700;-71
2023/08/06 03:48:46;;;;;;;5.93;5.33;;;;;;;16.19;83.42;100036.75;5020479;28;20230;-72
2023/08/06 03:51:13;;;;;;;6.80;5.80;;;;;;;16.17;83.90;100023.00;5036990;28;20214;-71
2023/08/06 03:53:41;;;;;;;6.23;5.53;;;;;;;16.19;83.82;100020.75;5018738;28;20270;-71
2023/08/06 03:56:08;;;;;;;6.27;5.67;;;;;;;16.18;83.46;100012.00;5016635;28;20318;-71
2023/08/06 03:58:34;;;;;;;6.53;5.77;;;;;;;16.19;83.71;100010.09;5036389;28;20231;-71
2023/08/06 04:01:01;;;;;;;6.67;5.50;;;;;;;16.18;83.55;100005.88;5022603;28;20226;-70
2023/08/06 04:03:32;;;;;;;6.60;5.53;;;;;;;16.18;84.02;99992.56;5021782;28;20214;-71
2023/08/06 04:05:59;;;;;;;6.30;5.63;;;;;;;16.18;83.93;99989.91;5038762;28;20235;-71
2023/08/06 04:08:25;;;;;;;18.97;5.83;;;;;;;16.16;83.92;99987.66;5021138;28;20216;-70
2023/08/06 04:10:53;;;;;;;6.57;5.90;;;;;;;16.17;83.85;99980.41;5036000;28;20568;-71
2023/08/06 04:13:21;;;;;;;6.97;5.90;;;;;;;16.15;83.89;99980.03;5035118;28;20818;-71
2023/08/06 04:15:47;;;;;;;7.13;5.97;;;;;;;16.15;84.35;99970.09;5036268;28;20207;-71
2023/08/06 04:18:14;;;;;;;6.20;5.43;;;;;;;16.15;84.19;99964.78;5036797;28;20257;-71
2023/08/06 04:20:44;;;;;;;5.77;5.17;;;;;;;16.16;84.27;99965.56;5017466;28;20217;-71
2023/08/06 04:23:10;;;;;;;8.70;5.73;;;;;;;16.15;84.27;99959.47;5014088;28;20320;-71
2023/08/06 04:25:37;;;;;;;6.63;5.87;;;;;;;16.15;83.94;99956.78;5035471;28;20649;-71
2023/08/06 04:28:05;;;;;;;6.67;5.97;;;;;;;16.16;84.29;99969.00;5033042;28;20371;-71
2023/08/06 04:30:31;;;;;;;7.33;5.83;;;;;;;16.16;84.35;99969.00;5013669;28;20348;-71
2023/08/06 04:32:58;;;;;;;5.83;5.03;;;;;;;16.16;84.43;99979.66;5036326;28;20203;-71
2023/08/06 04:35:26;;;;;;;5.73;5.13;;;;;;;16.14;84.81;99965.94;5013581;28;20203;-71
2023/08/06 04:37:52;;;;;;;6.47;5.67;;;;;;;16.16;84.67;99962.91;5035707;28;20281;-71
2023/08/06 04:40:19;;;;;;;6.50;5.80;;;;;;;16.17;84.93;99959.84;5019317;28;20230;-71
2023/08/06 04:42:45;;;;;;;7.40;6.00;;;;;;;16.18;84.92;99955.28;5017138;28;20210;-71
2023/08/06 04:45:13;;;;;;;6.30;5.70;;;;;;;16.18;84.72;99947.28;5033153;28;20205;-71
2023/08/06 04:47:39;;;;;;;6.03;5.43;;;;;;;16.18;84.77;99949.94;5032814;28;20236;-71
2023/08/06 04:50:06;;;;;;;6.50;5.43;;;;;;;16.19;84.92;99946.16;5037020;28;20229;-71
2023/08/06 04:52:33;;;;;;;6.23;5.27;;;;;;;16.19;84.73;99938.91;5035756;28;20206;-71
2023/08/06 04:54:59;;;;;;;6.37;5.13;;;;;;;16.21;84.66;99943.88;5035721;28;20570;-71
2023/08/06 04:57:25;;;;;;;6.17;5.57;;;;;;;16.20;84.70;99935.13;5036634;28;20214;-71
2023/08/06 04:59:52;;;;;;;6.20;5.30;;;;;;;16.22;84.73;99937.41;5035388;28;20224;-71
2023/08/06 05:02:19;;;;;;;6.33;4.97;;;;;;;16.23;84.41;99925.59;5022533;28;20597;-71
2023/08/06 05:04:45;;;;;;;5.60;4.80;;;;;;;16.23;84.75;99923.72;5014468;28;20202;-71
2023/08/06 05:07:12;;;;;;;6.00;4.80;;;;;;;16.23;84.55;99925.59;5036456;28;20214;-71
2023/08/06 05:09:38;;;;;;;5.23;4.43;;;;;;;16.23;84.68;99930.94;5034691;28;20282;-71
2023/08/06 05:12:05;;;;;;;5.03;4.53;;;;;;;16.24;84.51;99927.16;5033469;28;20199;-71
2023/08/06 05:14:32;;;;;;;4.80;4.27;;;;;;;16.23;84.74;99931.69;5037577;28;20215;-71
2023/08/06 05:16:58;;;;;;;4.50;4.10;;;;;;;16.20;84.91;99927.13;5038236;28;20211;-71
2023/08/06 05:19:26;;;;;;;4.03;3.60;;;;;;;16.18;84.58;99925.97;5038125;28;20688;-71
2023/08/06 05:21:52;;;;;;;3.97;3.67;;;;;;;16.19;84.64;99914.19;5041885;28;20227;-71
2023/08/06 05:24:18;;;;;;;4.80;3.90;;;;;;;16.19;84.28;99925.59;5040491;28;20214;-71
2023/08/06 05:26:46;;;;;;;4.13;3.73;;;;;;;16.19;84.40;99914.19;5035126;28;20225;-71
2023/08/06 05:29:13;;;;;;;4.13;3.73;;;;;;;16.18;84.40;99912.66;5037729;28;20242;-71
2023/08/06 05:31:39;;;;;;;4.20;3.03;;;;;;;16.18;84.15;99904.66;5030308;28;20203;-71
2023/08/06 05:34:05;;;;;;;4.57;3.53;;;;;;;16.12;84.65;99901.63;5041495;28;20283;-71
2023/08/06 05:36:33;;;;;;;3.57;3.17;;;;;;;16.13;84.46;99905.81;5037974;28;20208;-71
2023/08/06 05:38:59;;;;;;;3.33;3.00;;;;;;;16.12;84.35;99904.28;5039408;28;20225;-71
2023/08/06 05:41:26;;;;;;;3.80;3.40;;;;;;;16.13;84.40;99902.38;5036348;28;20225;-71
2023/08/06 05:43:52;;;;;;;4.70;4.20;;;;;;;16.15;84.36;99902.78;5036847;28;20215;-71
2023/08/06 05:46:18;;;;;;;3.90;2.93;;;;;;;16.15;84.71;99897.44;5037522;28;20253;-71
2023/08/06 05:48:44;;;;;;;3.40;3.10;;;;;;;16.14;84.73;99898.59;5038288;28;20238;-71
2023/08/06 05:51:12;;;;;;;3.17;2.87;;;;;;;16.16;84.46;99896.31;5037940;28;20199;-71
2023/08/06 05:53:40;;;;;;;3.60;3.30;;;;;;;16.18;84.69;99894.00;5036302;28;20214;-71
2023/08/06 05:56:06;;;;;;;3.97;3.57;;;;;;;16.19;85.05;99884.91;5038091;28;20206;-71
2023/08/06 05:58:33;;;;;;;4.00;3.60;;;;;;;16.21;84.84;99894.03;5036567;28;20573;-71
2023/08/06 06:00:59;;;;;;;3.77;3.47;;;;;;;16.22;85.28;99892.91;5038709;28;20207;-70
2023/08/06 06:03:25;;;;;;;4.03;3.63;;;;;;;16.24;84.78;99887.94;5037091;28;20202;-70
2023/08/06 06:05:52;;;;;;;3.40;3.10;;;;;;;16.26;85.01;99888.31;5037450;28;20715;-70
2023/08/06 06:08:18;;;;;;;3.53;3.17;;;;;;;16.27;84.69;99889.06;5037508;28;20602;-70
2023/08/06 06:10:46;;;;;;;4.43;3.13;;;;;;;16.25;84.70;99884.13;5039103;28;20246;-70
2023/08/06 06:13:12;;;;;;;3.53;3.23;;;;;;;16.24;84.61;99897.84;5040459;28;20259;-70
2023/08/06 06:15:38;;;;;;;3.83;3.40;;;;;;;16.25;84.60;99896.69;5039006;28;20612;-70
2023/08/06 06:18:05;;;;;;;6.87;5.33;;;;;;;16.25;84.70;99886.03;5038135;28;20195;-70
2023/08/06 06:20:33;;;;;;;4.83;4.20;;;;;;;16.26;84.99;99895.56;5038018;28;20754;-70
2023/08/06 06:22:59;;;;;;;4.27;3.70;;;;;;;16.27;84.79;99891.75;5037639;28;20209;-70
2023/08/06 06:25:25;;;;;;;4.10;3.70;;;;;;;16.29;85.31;99892.88;5037019;28;20211;-70
2023/08/06 06:27:53;;;;;;;5.57;3.83;;;;;;;16.30;85.27;99885.66;5037420;28;20379;-70
2023/08/06 06:30:19;;;;;;;4.00;3.60;;;;;;;16.32;85.36;99891.38;5039492;28;20716;-70
2023/08/06 06:32:45;;;;;;;3.83;3.40;;;;;;;16.34;85.39;99889.06;5035914;28;20223;-70
2023/08/06 06:35:13;;;;;;;3.63;3.27;;;;;;;16.36;85.41;99881.47;5036273;28;20199;-70
2023/08/06 06:37:39;;;;;;;5.10;3.43;;;;;;;16.37;85.41;99885.66;5032309;28;20201;-70
2023/08/06 06:40:07;;;;;;;3.93;3.40;;;;;;;16.38;85.05;99885.28;5039079;28;20482;-70
2023/08/06 06:42:33;;;;;;;4.03;3.63;;;;;;;16.39;85.03;99888.72;5030419;28;20299;-71
2023/08/06 06:45:03;;;;;;;3.97;3.40;;;;;;;16.42;84.99;99880.00;5019797;28;20258;-70
2023/08/06 06:47:29;;;;;;;3.90;3.50;;;;;;;16.42;85.18;99880.75;5035854;28;20231;-70
2023/08/06 06:49:55;;;;;;;4.10;2.93;;;;;;;16.43;85.11;99886.84;5036535;28;20380;-70
2023/08/06 06:52:22;;;;;;;9.47;7.87;;;;;;;16.42;84.65;99878.09;5036400;28;20218;-70
2023/08/06 06:54:48;;;;;;;4.73;4.13;;;;;;;16.43;84.99;99881.50;5039203;28;20223;-70
2023/08/06 06:57:15;;;;;;;10.13;9.13;;;;;;;16.44;84.96;99875.03;5038148;28;20206;-70
2023/08/06 06:59:41;;;;;;;4.83;4.43;;;;;;;16.41;84.54;99879.22;5035286;28;20227;-70
2023/08/06 07:02:09;;;;;;;4.40;3.83;;;;;;;16.43;84.51;99881.50;5040008;28;20387;-70
2023/08/06 07:04:35;;;;;;;6.27;4.10;;;;;;;16.41;85.05;99884.53;5037287;28;20211;-70
2023/08/06 07:07:01;;;;;;;3.97;3.57;;;;;;;16.42;85.15;99882.66;5037613;28;20222;-70
2023/08/06 07:09:28;;;;;;;4.07;3.60;;;;;;;16.44;85.21;99883.03;5036379;28;20230;-70
2023/08/06 07:11:54;;;;;;;4.53;3.50;;;;;;;16.44;85.31;99880.34;5020787;28;20234;-70
2023/08/06 07:14:20;;;;;;;4.67;4.13;;;;;;;16.45;85.07;99879.97;5036290;28;20217;-70
2023/08/06 07:16:47;;;;;;;5.00;3.83;;;;;;;16.47;85.02;99882.28;5036537;28;20222;-70
2023/08/06 07:19:14;;;;;;;4.80;3.60;;;;;;;16.48;85.42;99876.56;5039953;28;20625;-70
2023/08/06 07:21:41;;;;;;;4.67;3.97;;;;;;;16.50;85.54;99878.84;5033031;28;20207;-70
2023/08/06 07:24:07;;;;;;;4.33;3.93;;;;;;;16.53;85.46;99878.84;5036976;28;20206;-70
2023/08/06 07:26:33;;;;;;;4.43;4.03;;;;;;;16.56;85.63;99877.31;5034118;28;20219;-70
2023/08/06 07:29:00;;;;;;;4.10;3.70;;;;;;;16.56;85.19;99874.66;5034515;28;20707;-70
2023/08/06 07:31:26;;;;;;;5.47;4.57;;;;;;;16.58;85.28;99867.81;5037464;28;20597;-70
2023/08/06 07:33:52;;;;;;;5.40;4.30;;;;;;;16.62;85.24;99876.53;5035013;28;20207;-70
2023/08/06 07:36:20;;;;;;;4.13;3.50;;;;;;;16.64;85.50;99874.28;5034168;28;20241;-70
2023/08/06 07:38:48;;;;;;;5.03;4.30;;;;;;;16.67;85.57;99875.41;5033553;28;20231;-70
2023/08/06 07:41:14;;;;;;;6.73;4.13;;;;;;;16.69;85.50;99878.44;5034756;28;20249;-70
2023/08/06 07:43:42;;;;;;;4.97;4.50;;;;;;;16.72;85.36;99869.69;5035335;28;21735;-70
2023/08/06 07:46:09;;;;;;;5.23;3.60;;;;;;;16.74;85.88;99868.16;5037174;28;20211;-70
2023/08/06 07:48:35;;;;;;;3.83;3.10;;;;;;;16.78;85.69;99865.50;5032051;28;20230;-72
2023/08/06 07:51:01;;;;;;;3.43;3.13;;;;;;;16.78;85.26;99863.59;5034551;28;20212;-70
2023/08/06 07:53:29;;;;;;;3.40;3.10;;;;;;;16.81;85.24;99862.06;5036653;28;20226;-70
2023/08/06 07:55:55;;;;;;;3.47;3.17;;;;;;;16.82;85.31;99861.66;5037373;28;20613;-70
2023/08/06 07:58:25;;;;;;;3.83;3.10;;;;;;;16.86;85.32;99856.34;5036430;28;20752;-71
2023/08/06 08:00:51;;;;;;;4.10;3.30;;;;;;;16.86;85.16;99853.69;5032892;28;20214;-70
2023/08/06 08:03:18;;;;;;;3.80;3.40;;;;;;;16.90;85.53;99849.09;5033750;28;20771;-70
2023/08/06 08:05:45;;;;;;;3.73;3.43;;;;;;;16.94;85.67;99850.63;5032322;28;21213;-70
2023/08/06 08:08:11;;;;;;;4.13;3.73;;;;;;;16.95;85.56;99848.69;5034259;28;20225;-70
2023/08/06 08:10:39;;;;;;;3.50;3.20;;;;;;;16.98;84.99;99842.59;5035039;28;20835;-70
2023/08/06 08:13:06;;;;;;;3.87;3.57;;;;;;;16.95;85.10;99833.47;5039279;28;20272;-70
2023/08/06 08:15:33;;;;;;;4.80;3.63;;;;;;;16.98;84.81;99838.00;5036853;28;20214;-70
2023/08/06 08:18:00;;;;;;;7.57;3.90;;;;;;;17.02;85.58;99838.03;5028049;28;20207;-70
2023/08/06 08:20:31;;;;;;;4.77;4.13;;;;;;;17.04;85.76;99825.81;5036623;28;20299;-70
2023/08/06 08:22:58;;;;;;;3.80;3.50;;;;;;;17.06;85.50;99833.41;5042846;28;20648;-70
2023/08/06 08:25:25;;;;;;;4.30;3.90;;;;;;;17.09;85.23;99824.66;5039405;28;20206;-70
2023/08/06 08:27:52;;;;;;;4.93;3.90;;;;;;;17.11;84.93;99822.34;5038512;28;21827;-71
2023/08/06 08:30:18;;;;;;;4.47;3.93;;;;;;;17.10;84.60;99826.16;5036562;28;20707;-71
2023/08/06 08:32:45;;;;;;;4.23;3.83;;;;;;;17.10;84.75;99813.59;5034255;28;20218;-70
2023/08/06 08:35:12;;;;;;;5.90;4.07;;;;;;;17.15;84.98;99825.78;5033490;28;20206;-70
2023/08/06 08:37:39;;;;;;;5.03;4.53;;;;;;;17.12;84.38;99805.97;5035748;28;20215;-70
2023/08/06 08:40:07;;;;;;;5.33;4.37;;;;;;;17.16;84.77;99811.28;5035490;28;20321;-70
2023/08/06 08:42:33;;;;;;;5.00;4.50;;;;;;;17.19;85.03;99810.50;5030657;28;20578;-70
2023/08/06 08:45:01;;;;;;;5.07;4.53;;;;;;;17.23;84.98;99805.94;5029818;28;20737;-70
2023/08/06 08:47:28;;;;;;;4.80;4.30;;;;;;;17.25;84.96;99801.72;5030187;28;20221;-71
2023/08/06 08:49:55;;;;;;;6.20;4.47;;;;;;;17.29;85.37;99797.13;5030328;28;20488;-70
2023/08/06 08:52:23;;;;;;;6.23;5.63;;;;;;;17.36;85.53;99788.31;5035931;28;20294;-70
2023/08/06 08:54:52;;;;;;;6.23;5.63;;;;;;;17.37;85.40;99793.28;5035118;28;20218;-71
2023/08/06 08:57:19;;;;;;;6.27;5.67;;;;;;;17.40;84.82;99792.53;5035977;28;20222;-70
2023/08/06 08:59:45;;;;;;;6.03;5.43;;;;;;;17.44;85.06;99787.91;5035481;28;20709;-70
2023/08/06 09:02:15;;;;;;;6.80;6.07;;;;;;;17.47;84.81;99783.72;5036698;28;20211;-70
2023/08/06 09:04:42;;;;;;;6.27;5.67;;;;;;;17.45;84.22;99786.78;5036828;28;20191;-71
2023/08/06 09:07:11;;;;;;;6.83;5.53;;;;;;;17.46;84.17;99780.31;5037665;28;20320;-71
2023/08/06 09:09:40;;;;;;;6.90;6.20;;;;;;;17.51;84.35;99784.47;5034443;28;20222;-70
2023/08/06 09:12:12;;;;;;;6.80;6.20;;;;;;;17.54;84.63;99773.00;5040671;28;20277;-71
2023/08/06 09:14:39;;;;;;;7.40;6.70;;;;;;;17.55;84.61;99771.84;5032335;28;20211;-70
2023/08/06 09:17:06;;;;;;;7.53;6.77;;;;;;;17.57;84.52;99762.31;5037346;28;20276;-71
2023/08/06 09:19:33;;;;;;;7.40;6.60;;;;;;;17.58;84.16;99766.50;5039033;28;20265;-70
2023/08/06 09:22:00;;;;;;;7.10;6.40;;;;;;;17.58;84.05;99768.38;5033700;28;20199;-71
2023/08/06 09:24:27;;;;;;;7.47;6.53;;;;;;;17.57;83.16;99762.31;5038807;28;20207;-71
2023/08/06 09:26:54;;;;;;;7.37;6.63;;;;;;;17.60;83.84;99758.09;5032878;28;20204;-70
2023/08/06 09:29:21;;;;;;;8.17;7.27;;;;;;;17.60;84.08;99753.50;5033855;28;20227;-71
2023/08/06 09:31:49;;;;;;;8.27;7.47;;;;;;;17.64;83.77;99756.16;5033426;28;20230;-71
2023/08/06 09:34:16;;;;;;;7.93;7.13;;;;;;;17.67;84.26;99758.03;5035214;28;20292;-71
2023/08/06 09:36:47;;;;;;;9.10;7.83;;;;;;;17.67;83.77;99756.13;5037083;28;20649;-70
2023/08/06 09:39:14;;;;;;;10.23;7.43;;;;;;;17.67;83.76;99760.72;5035915;28;20261;-71
2023/08/06 09:41:41;;;;;;;8.30;7.50;;;;;;;17.71;83.72;99761.44;5033364;28;20222;-71
2023/08/06 09:44:16;;;;;;;9.10;8.20;;;;;;;17.77;84.35;99757.19;5039111;28;20486;-71
2023/08/06 09:46:43;;;;;;;9.43;8.20;;;;;;;17.78;83.49;99751.47;5030870;28;20207;-71
2023/08/06 09:49:10;;;;;;;9.63;7.73;;;;;;;17.84;83.85;99751.81;5029855;28;20604;-70
2023/08/06 09:51:39;;;;;;;9.90;7.63;;;;;;;17.85;83.92;99753.34;5032021;28;20210;-71
2023/08/06 09:54:07;;;;;;;9.97;7.47;;;;;;;17.88;83.26;99745.28;5038842;28;20199;-71
2023/08/06 09:56:37;;;;;;;6.97;6.27;;;;;;;17.88;83.01;99749.88;5017571;28;20204;-70
2023/08/06 09:59:05;;;;;;;7.90;7.10;;;;;;;17.88;83.27;99745.28;5038567;28;20232;-71
2023/08/06 10:01:33;;;;;;;8.50;7.40;;;;;;;17.91;83.21;99746.41;5038861;28;20565;-70
2023/08/06 10:04:01;;;;;;;7.53;6.83;;;;;;;17.88;83.02;99747.19;5018642;28;20215;-71
2023/08/06 10:06:29;;;;;;;9.57;7.27;;;;;;;17.85;83.11;99753.34;5031469;28;20286;-70
2023/08/06 10:08:55;;;;;;;8.07;7.27;;;;;;;17.87;83.09;99743.00;5033242;28;20234;-70
2023/08/06 10:11:25;;;;;;;8.37;7.57;;;;;;;17.90;83.41;99750.25;5038207;28;20210;-71
2023/08/06 10:13:55;;;;;;;8.23;7.43;;;;;;;17.90;83.29;99747.59;5037027;28;20231;-71
2023/08/06 10:16:22;;;;;;;8.80;7.87;;;;;;;17.91;82.85;99744.50;5035665;28;20211;-71
2023/08/06 10:18:50;;;;;;;9.67;7.83;;;;;;;17.91;83.47;99744.50;5035313;28;20586;-71
2023/08/06 10:21:16;;;;;;;9.40;7.97;;;;;;;17.94;82.74;99743.72;5036621;28;20234;-71
2023/08/06 10:23:43;;;;;;;9.83;7.97;;;;;;;17.93;82.98;99738.75;5037383;28;20207;-71
2023/08/06 10:26:09;;;;;;;9.93;7.23;;;;;;;17.95;82.97;99733.81;5041091;28;20206;-71
2023/08/06 10:28:38;;;;;;;8.90;8.00;;;;;;;17.95;83.63;99737.22;5037504;28;20228;-70
2023/08/06 10:31:06;;;;;;;9.93;8.57;;;;;;;18.00;84.12;99738.72;5036520;28;20492;-71
2023/08/06 10:33:44;;;;;;;9.73;8.67;;;;;;;18.02;83.92;99739.84;5032549;28;20203;-71
2023/08/06 10:36:11;;;;;;;9.47;8.47;;;;;;;18.07;84.45;99731.38;5032715;28;20745;-71
2023/08/06 10:38:45;;;;;;;9.43;8.43;;;;;;;18.10;83.14;99732.50;5027403;28;20713;-71
2023/08/06 10:41:16;;;;;;;9.17;8.20;;;;;;;18.11;83.02;99726.03;5024002;28;20420;-71
2023/08/06 10:43:48;;;;;;;9.00;8.10;;;;;;;18.13;83.66;99724.47;5032152;28;20736;-71
2023/08/06 10:46:23;;;;;;;10.10;9.00;;;;;;;18.15;83.65;99721.38;5033836;28;20293;-71
2023/08/06 10:48:49;;;;;;;11.90;9.57;;;;;;;18.19;83.83;99714.88;5033231;28;20226;-71
2023/08/06 10:51:16;;;;;;;11.50;9.50;;;;;;;18.25;83.84;99715.97;5037400;28;20218;-71
2023/08/06 10:53:44;;;;;;;10.20;9.20;;;;;;;18.25;83.35;99713.28;5035816;28;20715;-71
2023/08/06 10:56:14;;;;;;;10.77;9.67;;;;;;;18.29;83.10;99700.66;5037234;28;20517;-71
2023/08/06 10:58:41;;;;;;;10.77;8.93;;;;;;;18.30;82.60;99701.38;5039914;28;20230;-71
2023/08/06 11:01:09;;;;;;;8.70;7.80;;;;;;;18.29;82.33;99702.56;5037379;28;20203;-71
2023/08/06 11:03:36;;;;;;;8.37;7.43;;;;;;;18.31;82.50;99698.31;5037882;28;20195;-71
2023/08/06 11:06:03;;;;;;;7.57;6.80;;;;;;;18.28;82.21;99685.00;5037671;28;20206;-71
2023/08/06 11:08:30;;;;;;;6.77;6.07;;;;;;;18.27;81.62;99689.56;5035180;28;20227;-71
2023/08/06 11:11:08;;;;;;;8.27;7.13;;;;;;;18.23;82.09;99677.41;5038140;28;20203;-71
2023/08/06 11:13:35;;;;;;;7.53;6.07;;;;;;;18.21;81.85;99680.47;5037988;28;20623;-71
2023/08/06 11:16:01;;;;;;;6.67;5.60;;;;;;;18.17;81.69;99682.44;5031242;28;20211;-70
2023/08/06 11:18:29;;;;;;;6.60;6.00;;;;;;;18.17;81.34;99684.34;5035796;28;20209;-70
2023/08/06 11:20:55;;;;;;;7.37;6.60;;;;;;;18.13;81.51;99679.06;5032016;28;20210;-70
2023/08/06 11:23:22;;;;;;;7.27;6.57;;;;;;;18.08;82.24;99676.81;5032761;28;20220;-70
2023/08/06 11:25:48;;;;;;;7.83;7.00;;;;;;;18.06;82.63;99681.03;5031820;28;20226;-71
2023/08/06 11:28:14;;;;;;;6.60;6.00;;;;;;;18.03;81.84;99677.25;5035548;28;20226;-71
2023/08/06 11:30:41;;;;;;;7.10;6.40;;;;;;;18.07;81.92;99675.28;5030881;28;20708;-70